Time;durP1;ratioP1;P1;durP2;ratioP2;P2;SDS_P1;SDS_P2;PMS_P1;PMS_P2;Temp;Humidity;BMP_temperature;BMP_pressure;BME280_temperature;BME280_humidity;BME280_pressure;Samples;Min_cycle;Max_cycle;Signal;HPM_P1;HPM_P2
2023/03/23 00:01:46;;;;;;;;;;;20.20;34.80;;;;;;1545582;77;850;-60
2023/03/23 00:03:49;;;;;;;;;;;20.20;34.80;;;;;;1538209;77;1123;-60
2023/03/23 00:05:51;;;;;;;;;;;20.20;34.70;;;;;;1529166;77;1485;-60
2023/03/23 00:07:55;;;;;;;;;;;20.30;35.00;;;;;;1541474;77;1926;-60
2023/03/23 00:09:56;;;;;;;;;;;20.20;34.80;;;;;;1544897;77;835;-59
2023/03/23 00:12:04;;;;;;;;;;;20.20;34.70;;;;;;1539796;77;1155;-59
2023/03/23 00:14:02;;;;;;;;;;;20.30;35.00;;;;;;1546360;77;1553;-61
2023/03/23 00:16:04;;;;;;;;;;;20.20;34.80;;;;;;1544652;77;811;-60
2023/03/23 00:18:06;;;;;;;;;;;20.20;34.80;;;;;;1548781;77;674;-60
2023/03/23 00:20:10;;;;;;;;;;;20.20;34.80;;;;;;1541036;77;791;-60
2023/03/23 00:22:12;;;;;;;;;;;20.20;34.80;;;;;;1536509;77;1134;-60
2023/03/23 00:24:16;;;;;;;;;;;20.20;34.80;;;;;;1545196;77;687;-60
2023/03/23 00:26:18;;;;;;;;;;;20.20;34.80;;;;;;1541700;77;1598;-60
2023/03/23 00:28:24;;;;;;;;;;;20.20;34.90;;;;;;1548729;77;1940;-62
2023/03/23 00:30:24;;;;;;;;;;;20.20;34.80;;;;;;1547767;77;1379;-59
2023/03/23 00:32:31;;;;;;;;;;;20.20;34.90;;;;;;1541329;77;1118;-59
2023/03/23 00:34:33;;;;;;;;;;;20.20;34.90;;;;;;1532152;77;1645;-60
2023/03/23 00:36:34;;;;;;;;;;;20.20;34.80;;;;;;1534533;77;1600;-61
2023/03/23 00:38:36;;;;;;;;;;;20.20;34.90;;;;;;1538920;77;686;-60
2023/03/23 00:40:38;;;;;;;;;;;20.20;34.90;;;;;;1545126;77;740;-61
2023/03/23 00:42:40;;;;;;;;;;;20.20;34.90;;;;;;1547538;77;1605;-60
2023/03/23 00:44:43;;;;;;;;;;;20.30;35.10;;;;;;1530306;77;695;-61
2023/03/23 00:46:45;;;;;;;;;;;20.20;34.90;;;;;;1526729;77;748;-59
2023/03/23 00:48:47;;;;;;;;;;;20.20;35.00;;;;;;1546344;77;1919;-59
2023/03/23 00:50:49;;;;;;;;;;;20.20;35.00;;;;;;1537049;77;697;-60
2023/03/23 00:52:52;;;;;;;;;;;20.20;35.00;;;;;;1543544;77;1141;-61
2023/03/23 00:54:54;;;;;;;;;;;20.20;35.00;;;;;;1547214;77;747;-61
2023/03/23 00:56:56;;;;;;;;;;;20.20;35.00;;;;;;1546691;77;1519;-59
2023/03/23 00:58:58;;;;;;;;;;;20.20;35.00;;;;;;1546773;77;667;-60
2023/03/23 01:01:00;;;;;;;;;;;20.20;35.00;;;;;;1532603;77;731;-61
2023/03/23 01:03:02;;;;;;;;;;;20.20;35.00;;;;;;1534021;77;1152;-62
2023/03/23 01:05:04;;;;;;;;;;;20.20;34.90;;;;;;1545741;77;723;-62
2023/03/23 01:07:08;;;;;;;;;;;20.20;35.00;;;;;;1537652;77;735;-61
2023/03/23 01:09:10;;;;;;;;;;;20.20;35.00;;;;;;1539096;77;1935;-59
2023/03/23 01:11:13;;;;;;;;;;;20.20;35.00;;;;;;1538026;77;1493;-61
2023/03/23 01:13:15;;;;;;;;;;;20.20;35.00;;;;;;1539464;77;1130;-60
2023/03/23 01:15:17;;;;;;;;;;;20.20;35.00;;;;;;1540239;77;759;-60
2023/03/23 01:17:20;;;;;;;;;;;20.20;35.00;;;;;;1533217;77;732;-60
2023/03/23 01:19:22;;;;;;;;;;;20.20;35.00;;;;;;1539742;77;824;-61
2023/03/23 01:21:24;;;;;;;;;;;20.20;35.00;;;;;;1547800;77;732;-60
2023/03/23 01:23:26;;;;;;;;;;;20.30;35.10;;;;;;1548456;77;1082;-59
2023/03/23 01:25:29;;;;;;;;;;;20.20;35.00;;;;;;1537240;77;1546;-60
2023/03/23 01:27:31;;;;;;;;;;;20.30;35.10;;;;;;1531992;77;1912;-60
2023/03/23 01:29:33;;;;;;;;;;;20.20;35.00;;;;;;1534251;77;716;-61
2023/03/23 01:31:36;;;;;;;;;;;20.30;35.10;;;;;;1543774;77;659;-61
2023/03/23 01:33:38;;;;;;;;;;;20.30;35.10;;;;;;1535806;77;1139;-60
2023/03/23 01:35:40;;;;;;;;;;;20.30;35.10;;;;;;1537607;77;624;-63
2023/03/23 01:37:42;;;;;;;;;;;20.30;35.00;;;;;;1537192;77;732;-59
2023/03/23 01:39:44;;;;;;;;;;;20.30;35.00;;;;;;1541341;77;1389;-59
2023/03/23 01:41:46;;;;;;;;;;;20.30;35.10;;;;;;1542050;77;745;-60
2023/03/23 01:44:01;;;;;;;;;;;20.30;35.10;;;;;;1536366;77;1161;-60
2023/03/23 01:46:02;;;;;;;;;;;20.20;35.00;;;;;;1449615;81;942;-60
2023/03/23 01:48:08;;;;;;;;;;;20.20;35.00;;;;;;1526160;77;1953;-59
2023/03/23 01:50:10;;;;;;;;;;;20.30;35.20;;;;;;1533643;77;758;-61
2023/03/23 01:52:16;;;;;;;;;;;20.20;35.10;;;;;;1540282;77;1133;-59
2023/03/23 01:54:20;;;;;;;;;;;20.20;35.10;;;;;;1535333;77;702;-60
2023/03/23 01:56:24;;;;;;;;;;;20.20;35.10;;;;;;1538483;75;708;-60
2023/03/23 01:58:27;;;;;;;;;;;20.20;35.10;;;;;;1545390;77;1690;-60
2023/03/23 02:00:30;;;;;;;;;;;20.20;35.10;;;;;;1536943;77;656;-60
2023/03/23 02:02:34;;;;;;;;;;;20.20;35.10;;;;;;1528846;77;1099;-61
2023/03/23 02:04:35;;;;;;;;;;;20.30;35.20;;;;;;1542308;77;1680;-60
2023/03/23 02:06:37;;;;;;;;;;;20.30;35.20;;;;;;1544614;77;1338;-60
2023/03/23 02:08:40;;;;;;;;;;;20.20;35.00;;;;;;1535752;77;1915;-60
2023/03/23 02:10:42;;;;;;;;;;;20.20;35.00;;;;;;1541769;77;789;-60
2023/03/23 02:12:44;;;;;;;;;;;20.20;35.10;;;;;;1530865;77;1076;-59
2023/03/23 02:14:46;;;;;;;;;;;20.20;35.20;;;;;;1539738;77;732;-60
2023/03/23 02:16:56;;;;;;;;;;;20.10;35.20;;;;;;1547092;77;763;-58
2023/03/23 02:18:59;;;;;;;;;;;20.20;35.20;;;;;;1534360;77;794;-58
2023/03/23 02:21:03;;;;;;;;;;;20.20;35.20;;;;;;1539531;77;1693;-59
2023/03/23 02:23:16;;;;;;;;;;;20.20;35.20;;;;;;1539680;77;1139;-59
2023/03/23 02:25:22;;;;;;;;;;;20.20;35.10;;;;;;1533905;77;697;-60
2023/03/23 02:27:43;;;;;;;;;;;20.30;35.20;;;;;;1542240;77;1366;-60
2023/03/23 02:29:47;;;;;;;;;;;20.20;35.20;;;;;;1545851;77;716;-59
2023/03/23 02:31:57;;;;;;;;;;;20.20;35.20;;;;;;1548614;77;627;-60
2023/03/23 02:34:03;;;;;;;;;;;20.20;35.20;;;;;;1545466;77;709;-60
2023/03/23 02:36:13;;;;;;;;;;;20.20;35.20;;;;;;1529863;77;1819;-60
2023/03/23 02:38:15;;;;;;;;;;;20.10;35.20;;;;;;1542210;77;576;-60
2023/03/23 02:40:19;;;;;;;;;;;20.10;35.20;;;;;;1548547;77;750;-60
2023/03/23 02:42:28;;;;;;;;;;;20.20;35.20;;;;;;1548658;77;1176;-60
2023/03/23 02:44:30;;;;;;;;;;;20.30;35.30;;;;;;1536632;77;1493;-60
2023/03/23 02:46:32;;;;;;;;;;;20.30;35.30;;;;;;1543717;77;798;-60
2023/03/23 02:48:34;;;;;;;;;;;20.20;35.20;;;;;;1534533;77;1931;-60
2023/03/23 02:50:36;;;;;;;;;;;20.20;35.20;;;;;;1547362;77;761;-60
2023/03/23 02:52:38;;;;;;;;;;;20.20;35.20;;;;;;1542919;77;1113;-60
2023/03/23 02:54:41;;;;;;;;;;;20.30;35.30;;;;;;1537233;77;697;-59
2023/03/23 02:56:43;;;;;;;;;;;20.20;35.20;;;;;;1541800;77;782;-60
2023/03/23 02:58:45;;;;;;;;;;;20.30;35.20;;;;;;1542178;77;781;-60
2023/03/23 03:00:49;;;;;;;;;;;20.30;35.20;;;;;;1539073;77;808;-60
2023/03/23 03:02:53;;;;;;;;;;;20.20;35.10;;;;;;1510449;77;1705;-59
2023/03/23 03:05:06;;;;;;;;;;;20.20;35.10;;;;;;1532931;77;645;-59
2023/03/23 03:07:09;;;;;;;;;;;20.20;35.10;;;;;;1537705;77;824;-60
2023/03/23 03:09:22;;;;;;;;;;;20.30;35.30;;;;;;1547881;77;1969;-60
2023/03/23 03:11:25;;;;;;;;;;;20.30;35.20;;;;;;1549008;77;812;-59
2023/03/23 03:13:38;;;;;;;;;;;20.30;35.30;;;;;;1544986;77;1127;-61
2023/03/23 03:15:47;;;;;;;;;;;20.20;35.20;;;;;;1545055;77;1963;-61
2023/03/23 03:17:51;;;;;;;;;;;20.30;35.30;;;;;;1545660;77;1571;-61
2023/03/23 03:19:58;;;;;;;;;;;20.20;35.20;;;;;;1543071;77;677;-60
2023/03/23 03:22:00;;;;;;;;;;;20.30;35.30;;;;;;1535753;77;1787;-60
2023/03/23 03:24:02;;;;;;;;;;;20.30;35.30;;;;;;1534606;77;700;-60
2023/03/23 03:26:04;;;;;;;;;;;20.20;35.10;;;;;;1529261;77;737;-62
2023/03/23 03:28:06;;;;;;;;;;;20.20;35.10;;;;;;1535635;77;1912;-60
2023/03/23 03:30:09;;;;;;;;;;;20.20;35.10;;;;;;1527337;77;728;-60
2023/03/23 03:32:13;;;;;;;;;;;20.30;35.20;;;;;;1533595;77;1628;-60
2023/03/23 03:34:17;;;;;;;;;;;20.30;35.30;;;;;;1530265;77;701;-59
2023/03/23 03:36:22;;;;;;;;;;;20.30;35.20;;;;;;1540601;77;1698;-61
2023/03/23 03:38:24;;;;;;;;;;;20.30;35.20;;;;;;1544554;77;677;-60
2023/03/23 03:40:25;;;;;;;;;;;20.30;35.20;;;;;;1542209;77;664;-60
2023/03/23 03:42:27;;;;;;;;;;;20.30;35.20;;;;;;1547154;77;1170;-59
2023/03/23 03:44:29;;;;;;;;;;;20.30;35.20;;;;;;1540784;77;845;-61
2023/03/23 03:46:31;;;;;;;;;;;20.30;35.30;;;;;;1546972;77;1433;-60
2023/03/23 03:48:33;;;;;;;;;;;20.30;35.20;;;;;;1533176;77;1934;-60
2023/03/23 03:50:35;;;;;;;;;;;20.30;35.20;;;;;;1544015;77;752;-58
2023/03/23 03:52:38;;;;;;;;;;;20.30;35.30;;;;;;1542760;77;1153;-60
2023/03/23 03:54:40;;;;;;;;;;;20.20;35.20;;;;;;1528799;77;792;-60
2023/03/23 03:56:42;;;;;;;;;;;20.20;35.20;;;;;;1546786;77;749;-60
2023/03/23 03:58:44;;;;;;;;;;;20.20;35.20;;;;;;1548710;77;811;-60
2023/03/23 04:00:47;;;;;;;;;;;20.30;35.40;;;;;;1540656;77;1704;-61
2023/03/23 04:02:54;;;;;;;;;;;20.30;35.30;;;;;;1537387;77;1168;-61
2023/03/23 04:04:53;;;;;;;;;;;20.20;35.20;;;;;;1545148;77;1624;-60
2023/03/23 04:06:55;;;;;;;;;;;20.30;35.20;;;;;;1531139;77;717;-59
2023/03/23 04:08:58;;;;;;;;;;;20.30;35.30;;;;;;1536017;77;1901;-60
2023/03/23 04:11:01;;;;;;;;;;;20.30;35.20;;;;;;1537496;77;782;-59
2023/03/23 04:13:04;;;;;;;;;;;20.30;35.30;;;;;;1545175;77;1521;-61
2023/03/23 04:15:07;;;;;;;;;;;20.30;35.20;;;;;;1547873;77;745;-59
2023/03/23 04:17:09;;;;;;;;;;;20.30;35.20;;;;;;1546843;77;719;-60
2023/03/23 04:19:12;;;;;;;;;;;20.30;35.30;;;;;;1548606;77;689;-60
2023/03/23 04:21:14;;;;;;;;;;;20.30;35.30;;;;;;1548806;77;714;-60
2023/03/23 04:23:19;;;;;;;;;;;20.30;35.30;;;;;;1538157;77;1147;-60
2023/03/23 04:25:21;;;;;;;;;;;20.20;35.20;;;;;;1539596;77;834;-60
2023/03/23 04:27:24;;;;;;;;;;;20.30;35.40;;;;;;1537093;77;1372;-59
2023/03/23 04:29:26;;;;;;;;;;;20.20;35.20;;;;;;1547520;77;1920;-60
2023/03/23 04:31:28;;;;;;;;;;;20.20;35.20;;;;;;1541479;77;688;-61
2023/03/23 04:33:30;;;;;;;;;;;20.20;35.20;;;;;;1545713;77;1114;-60
2023/03/23 04:35:33;;;;;;;;;;;20.20;35.20;;;;;;1544563;77;814;-59
2023/03/23 04:37:36;;;;;;;;;;;20.20;35.20;;;;;;1545281;77;688;-59
2023/03/23 04:39:39;;;;;;;;;;;20.30;35.40;;;;;;1543734;77;653;-61
2023/03/23 04:41:41;;;;;;;;;;;20.30;35.40;;;;;;1546095;77;1591;-60
2023/03/23 04:43:43;;;;;;;;;;;20.30;35.40;;;;;;1532417;77;1103;-61
2023/03/23 04:45:45;;;;;;;;;;;20.30;35.40;;;;;;1547431;77;650;-59
2023/03/23 04:47:52;;;;;;;;;;;20.20;35.20;;;;;;1539607;77;787;-60
2023/03/23 04:49:51;;;;;;;;;;;20.30;35.40;;;;;;1546491;77;1908;-60
2023/03/23 04:51:53;;;;;;;;;;;20.30;35.30;;;;;;1548346;77;1132;-60
2023/03/23 04:53:56;;;;;;;;;;;20.30;35.30;;;;;;1547304;77;712;-59
2023/03/23 04:55:57;;;;;;;;;;;20.30;35.40;;;;;;1543701;77;1559;-60
2023/03/23 04:58:02;;;;;;;;;;;20.30;35.40;;;;;;1539854;77;780;-60
2023/03/23 05:00:08;;;;;;;;;;;20.30;35.40;;;;;;1535430;77;971;-60
2023/03/23 05:02:12;;;;;;;;;;;20.20;35.30;;;;;;1546696;77;1148;-61
2023/03/23 05:04:16;;;;;;;;;;;20.30;35.50;;;;;;1539172;77;629;-59
2023/03/23 05:06:18;;;;;;;;;;;20.20;35.30;;;;;;1533085;77;737;-60
2023/03/23 05:08:20;;;;;;;;;;;20.30;35.50;;;;;;1537502;77;663;-60
2023/03/23 05:10:22;;;;;;;;;;;20.20;35.40;;;;;;1535702;77;1925;-60
2023/03/23 05:12:24;;;;;;;;;;;20.20;35.30;;;;;;1534745;77;1162;-60
2023/03/23 05:14:26;;;;;;;;;;;20.20;35.30;;;;;;1544553;77;727;-61
2023/03/23 05:16:30;;;;;;;;;;;20.20;35.30;;;;;;1547856;77;795;-61
2023/03/23 05:18:32;;;;;;;;;;;20.20;35.30;;;;;;1539859;77;734;-60
2023/03/23 05:20:34;;;;;;;;;;;20.30;35.50;;;;;;1533201;77;757;-60
2023/03/23 05:22:36;;;;;;;;;;;20.30;35.50;;;;;;1541799;77;1134;-59
2023/03/23 05:24:38;;;;;;;;;;;20.20;35.30;;;;;;1536108;77;1615;-60
2023/03/23 05:26:39;;;;;;;;;;;20.30;35.50;;;;;;1538703;77;736;-60
2023/03/23 05:28:41;;;;;;;;;;;20.20;35.40;;;;;;1534130;77;798;-59
2023/03/23 05:30:44;;;;;;;;;;;20.30;35.50;;;;;;1533522;77;1940;-60
2023/03/23 05:32:50;;;;;;;;;;;20.20;35.30;;;;;;1544603;77;1063;-61
2023/03/23 05:34:49;;;;;;;;;;;20.20;35.40;;;;;;1538071;77;1986;-61
2023/03/23 05:36:52;;;;;;;;;;;20.30;35.50;;;;;;1544306;77;624;-59
2023/03/23 05:38:54;;;;;;;;;;;20.30;35.50;;;;;;1534901;77;1555;-60
2023/03/23 05:41:00;;;;;;;;;;;20.20;35.40;;;;;;1529857;77;760;-60
2023/03/23 05:43:01;;;;;;;;;;;20.20;35.30;;;;;;1540092;77;1632;-59
2023/03/23 05:45:04;;;;;;;;;;;20.20;35.30;;;;;;1547483;77;755;-60
2023/03/23 05:47:05;;;;;;;;;;;20.20;35.30;;;;;;1548450;77;736;-60
2023/03/23 05:49:08;;;;;;;;;;;20.20;35.30;;;;;;1545916;77;1921;-60
2023/03/23 05:51:10;;;;;;;;;;;20.20;35.30;;;;;;1544780;77;734;-59
2023/03/23 05:53:12;;;;;;;;;;;20.20;35.30;;;;;;1542205;77;1334;-60
2023/03/23 05:55:14;;;;;;;;;;;20.30;35.50;;;;;;1543044;77;804;-60
2023/03/23 05:57:17;;;;;;;;;;;20.30;35.50;;;;;;1538757;77;737;-59
2023/03/23 05:59:19;;;;;;;;;;;20.30;35.50;;;;;;1533774;77;688;-60
2023/03/23 06:01:20;;;;;;;;;;;20.20;35.50;;;;;;1536145;77;724;-61
2023/03/23 06:03:22;;;;;;;;;;;20.20;35.40;;;;;;1534725;77;1154;-61
2023/03/23 06:05:25;;;;;;;;;;;20.30;35.60;;;;;;1531196;77;1469;-59
2023/03/23 06:07:27;;;;;;;;;;;20.20;35.40;;;;;;1539906;77;745;-61
2023/03/23 06:09:29;;;;;;;;;;;20.20;35.40;;;;;;1539098;77;1930;-61
2023/03/23 06:11:31;;;;;;;;;;;20.30;35.50;;;;;;1538671;77;809;-60
2023/03/23 06:13:33;;;;;;;;;;;20.30;35.50;;;;;;1530232;77;1169;-60
2023/03/23 06:15:35;;;;;;;;;;;20.20;35.40;;;;;;1533321;77;703;-59
2023/03/23 06:17:37;;;;;;;;;;;20.20;35.30;;;;;;1526297;77;694;-60
2023/03/23 06:19:40;;;;;;;;;;;20.20;35.20;;;;;;1533839;77;1576;-60
2023/03/23 06:21:43;;;;;;;;;;;20.20;35.10;;;;;;1545564;77;763;-60
2023/03/23 06:23:46;;;;;;;;;;;20.20;35.10;;;;;;1548042;77;1097;-61
2023/03/23 06:25:49;;;;;;;;;;;20.20;35.10;;;;;;1548343;77;639;-60
2023/03/23 06:27:51;;;;;;;;;;;20.30;35.20;;;;;;1532297;77;643;-60
2023/03/23 06:29:53;;;;;;;;;;;20.20;35.10;;;;;;1537076;77;1905;-59
2023/03/23 06:31:56;;;;;;;;;;;20.20;35.20;;;;;;1517007;78;1143;-60
2023/03/23 06:33:58;;;;;;;;;;;20.30;35.30;;;;;;1508735;77;1508;-61
2023/03/23 06:36:00;;;;;;;;;;;20.20;35.10;;;;;;1508662;77;778;-60
2023/03/23 06:38:02;;;;;;;;;;;20.30;35.20;;;;;;1489362;77;699;-59
2023/03/23 06:40:09;;;;;;;;;;;20.30;35.20;;;;;;1543498;77;712;-60
2023/03/23 06:42:11;;;;;;;;;;;20.30;35.30;;;;;;1540383;77;1181;-60
2023/03/23 06:44:13;;;;;;;;;;;20.20;35.20;;;;;;1535761;77;646;-60
2023/03/23 06:46:15;;;;;;;;;;;20.20;35.20;;;;;;1535949;77;696;-60
2023/03/23 06:48:17;;;;;;;;;;;20.20;35.20;;;;;;1542300;77;1551;-60
2023/03/23 06:50:19;;;;;;;;;;;20.20;35.30;;;;;;1541291;77;1947;-60
2023/03/23 06:52:22;;;;;;;;;;;20.20;35.20;;;;;;1533949;77;1145;-60
2023/03/23 06:54:24;;;;;;;;;;;20.20;35.30;;;;;;1541542;77;747;-60
2023/03/23 06:56:26;;;;;;;;;;;20.20;35.40;;;;;;1529416;77;756;-59
2023/03/23 06:58:27;;;;;;;;;;;20.20;35.40;;;;;;1540989;77;735;-60
2023/03/23 07:00:29;;;;;;;;;;;20.20;35.40;;;;;;1548866;77;658;-62
2023/03/23 07:02:33;;;;;;;;;;;20.20;35.30;;;;;;1539548;77;1501;-60
2023/03/23 07:04:35;;;;;;;;;;;20.20;35.30;;;;;;1541249;77;755;-60
2023/03/23 07:06:37;;;;;;;;;;;20.20;35.30;;;;;;1532948;77;711;-60
2023/03/23 07:08:39;;;;;;;;;;;20.30;35.50;;;;;;1531141;77;723;-61
2023/03/23 07:10:41;;;;;;;;;;;20.20;35.40;;;;;;1535653;77;1932;-62
2023/03/23 07:12:43;;;;;;;;;;;20.20;35.40;;;;;;1538344;77;1106;-60
2023/03/23 07:14:45;;;;;;;;;;;20.20;35.50;;;;;;1529239;77;800;-59
2023/03/23 07:16:48;;;;;;;;;;;20.30;35.60;;;;;;1526071;77;1501;-60
2023/03/23 07:18:50;;;;;;;;;;;20.30;35.50;;;;;;1547805;77;759;-61
2023/03/23 07:20:52;;;;;;;;;;;20.30;35.50;;;;;;1530985;77;698;-59
2023/03/23 07:22:54;;;;;;;;;;;20.20;35.40;;;;;;1548431;77;1129;-60
2023/03/23 07:24:56;;;;;;;;;;;20.20;35.50;;;;;;1536803;77;744;-59
2023/03/23 07:26:58;;;;;;;;;;;20.20;35.40;;;;;;1546474;77;716;-59
2023/03/23 07:29:00;;;;;;;;;;;20.20;35.40;;;;;;1535743;77;749;-60
2023/03/23 07:31:02;;;;;;;;;;;20.30;35.60;;;;;;1537355;77;1900;-60
2023/03/23 07:33:06;;;;;;;;;;;20.20;35.50;;;;;;1538615;77;1143;-59
2023/03/23 07:35:09;;;;;;;;;;;20.20;35.50;;;;;;1544556;77;756;-61
2023/03/23 07:37:11;;;;;;;;;;;20.30;35.60;;;;;;1542063;77;788;-60
2023/03/23 07:39:13;;;;;;;;;;;20.30;35.60;;;;;;1536530;77;710;-60
2023/03/23 07:41:15;;;;;;;;;;;20.20;35.50;;;;;;1543588;77;747;-60
2023/03/23 07:43:17;;;;;;;;;;;20.30;35.60;;;;;;1536237;77;1112;-60
2023/03/23 07:45:18;;;;;;;;;;;20.20;35.50;;;;;;1539083;77;1691;-60
2023/03/23 07:47:20;;;;;;;;;;;20.20;35.40;;;;;;1540528;77;793;-61
2023/03/23 07:49:22;;;;;;;;;;;20.20;35.40;;;;;;1546858;77;747;-60
2023/03/23 07:51:24;;;;;;;;;;;20.20;35.40;;;;;;1545120;77;1951;-60
2023/03/23 07:53:26;;;;;;;;;;;20.20;35.40;;;;;;1547797;77;1153;-59
2023/03/23 07:55:28;;;;;;;;;;;20.20;35.40;;;;;;1540941;77;759;-60
2023/03/23 07:57:30;;;;;;;;;;;20.20;35.40;;;;;;1533091;77;708;-60
2023/03/23 07:59:32;;;;;;;;;;;20.30;35.60;;;;;;1547977;77;1496;-59
2023/03/23 08:01:34;;;;;;;;;;;20.30;35.60;;;;;;1533536;77;742;-60
2023/03/23 08:03:36;;;;;;;;;;;20.30;35.50;;;;;;1537789;77;1152;-59
2023/03/23 08:05:38;;;;;;;;;;;20.30;35.60;;;;;;1528767;77;804;-60
2023/03/23 08:07:40;;;;;;;;;;;20.30;35.60;;;;;;1543231;77;743;-59
2023/03/23 08:09:43;;;;;;;;;;;20.20;35.40;;;;;;1548105;77;1920;-61
2023/03/23 08:11:44;;;;;;;;;;;20.30;35.50;;;;;;1535412;77;746;-60
2023/03/23 08:13:47;;;;;;;;;;;20.30;35.60;;;;;;1532187;77;1452;-61
2023/03/23 08:15:49;;;;;;;;;;;20.30;35.60;;;;;;1547309;77;761;-60
2023/03/23 08:17:52;;;;;;;;;;;20.30;35.60;;;;;;1542416;77;799;-61
2023/03/23 08:19:54;;;;;;;;;;;20.30;35.60;;;;;;1546488;77;793;-62
2023/03/23 08:21:56;;;;;;;;;;;20.30;35.70;;;;;;1530467;77;1114;-59
2023/03/23 08:23:59;;;;;;;;;;;20.30;35.70;;;;;;1536623;77;722;-60
2023/03/23 08:26:01;;;;;;;;;;;20.20;35.60;;;;;;1539340;77;796;-60
2023/03/23 08:28:03;;;;;;;;;;;20.20;35.50;;;;;;1537516;77;696;-60
2023/03/23 08:30:05;;;;;;;;;;;20.20;35.60;;;;;;1536316;77;1937;-60
2023/03/23 08:32:07;;;;;;;;;;;20.30;35.70;;;;;;1546276;77;1126;-60
2023/03/23 08:34:09;;;;;;;;;;;20.30;35.70;;;;;;1546873;77;739;-60
2023/03/23 08:36:11;;;;;;;;;;;20.30;35.70;;;;;;1544027;77;690;-61
2023/03/23 08:38:13;;;;;;;;;;;20.30;35.70;;;;;;1540277;77;627;-60
2023/03/23 08:40:18;;;;;;;;;;;20.30;35.70;;;;;;1537029;77;1481;-59
2023/03/23 08:42:19;;;;;;;;;;;20.30;35.70;;;;;;1539074;77;1732;-61
2023/03/23 08:44:21;;;;;;;;;;;20.30;35.70;;;;;;1544421;77;597;-61
2023/03/23 08:46:22;;;;;;;;;;;20.30;35.70;;;;;;1539862;77;745;-60
2023/03/23 08:48:24;;;;;;;;;;;20.30;35.70;;;;;;1537262;77;831;-59
2023/03/23 08:50:27;;;;;;;;;;;20.30;35.70;;;;;;1542582;77;1939;-61
2023/03/23 08:52:29;;;;;;;;;;;20.20;35.60;;;;;;1535407;77;1134;-61
2023/03/23 08:54:31;;;;;;;;;;;20.30;35.70;;;;;;1537001;77;1503;-59
2023/03/23 08:56:33;;;;;;;;;;;20.30;35.70;;;;;;1534883;77;771;-62
2023/03/23 08:58:35;;;;;;;;;;;20.30;35.70;;;;;;1538177;77;598;-60
2023/03/23 09:00:37;;;;;;;;;;;20.30;35.70;;;;;;1540751;77;823;-60
2023/03/23 09:02:39;;;;;;;;;;;20.40;35.70;;;;;;1548966;77;1150;-60
2023/03/23 09:04:45;;;;;;;;;;;20.30;35.70;;;;;;1542622;77;838;-60
2023/03/23 09:06:45;;;;;;;;;;;20.30;35.80;;;;;;1534705;77;1675;-59
2023/03/23 09:08:47;;;;;;;;;;;20.30;35.80;;;;;;1533173;77;1456;-60
2023/03/23 09:10:49;;;;;;;;;;;20.30;35.80;;;;;;1535981;77;1929;-61
2023/03/23 09:12:52;;;;;;;;;;;20.30;35.70;;;;;;1527419;77;1228;-62
2023/03/23 09:14:53;;;;;;;;;;;20.40;35.70;;;;;;1539791;77;767;-60
2023/03/23 09:16:55;;;;;;;;;;;20.30;35.70;;;;;;1524236;77;638;-60
2023/03/23 09:18:57;;;;;;;;;;;20.40;35.70;;;;;;1529734;77;758;-60
2023/03/23 09:20:59;;;;;;;;;;;20.30;35.70;;;;;;1538985;77;817;-60
2023/03/23 09:23:01;;;;;;;;;;;20.40;35.70;;;;;;1548398;77;1533;-60
2023/03/23 09:25:03;;;;;;;;;;;20.40;35.70;;;;;;1548966;77;703;-59
2023/03/23 09:27:05;;;;;;;;;;;20.30;35.70;;;;;;1528310;77;795;-60
2023/03/23 09:29:08;;;;;;;;;;;20.30;35.70;;;;;;1533578;77;795;-60
2023/03/23 09:31:10;;;;;;;;;;;20.30;35.70;;;;;;1541336;77;1944;-59
2023/03/23 09:33:12;;;;;;;;;;;20.40;35.70;;;;;;1537956;77;1153;-60
2023/03/23 09:35:16;;;;;;;;;;;20.40;35.70;;;;;;1544736;77;690;-60
2023/03/23 09:37:18;;;;;;;;;;;20.40;35.70;;;;;;1547109;77;1563;-60
2023/03/23 09:39:19;;;;;;;;;;;20.30;35.70;;;;;;1540295;77;797;-60
2023/03/23 09:41:40;;;;;;;;;;;20.40;35.80;;;;;;1538936;77;687;-59
2023/03/23 09:43:53;;;;;;;;;;;20.40;35.70;;;;;;1534930;77;1120;-61
2023/03/23 09:46:08;;;;;;;;;;;20.40;35.80;;;;;;1542615;77;2082;-60
2023/03/23 09:48:20;;;;;;;;;;;20.30;35.80;;;;;;1537914;77;1576;-60
2023/03/23 09:50:26;;;;;;;;;;;20.30;35.80;;;;;;1526802;77;1913;-62
2023/03/23 09:52:29;;;;;;;;;;;20.40;35.90;;;;;;1534821;77;1157;-60
2023/03/23 09:54:32;;;;;;;;;;;20.40;35.80;;;;;;1544085;77;1854;-60
2023/03/23 09:56:35;;;;;;;;;;;20.40;35.90;;;;;;1532068;77;2092;-60
2023/03/23 09:58:54;;;;;;;;;;;20.40;35.90;;;;;;1542966;77;742;-61
2023/03/23 10:01:16;;;;;;;;;;;20.30;35.90;;;;;;1548609;77;764;-59
2023/03/23 10:03:19;;;;;;;;;;;20.40;35.90;;;;;;1530390;77;1143;-59
2023/03/23 10:05:29;;;;;;;;;;;20.40;36.00;;;;;;1534894;77;1873;-61
2023/03/23 10:07:31;;;;;;;;;;;20.30;36.00;;;;;;1544285;77;780;-59
2023/03/23 10:09:33;;;;;;;;;;;20.40;35.90;;;;;;1529452;77;723;-61
2023/03/23 10:11:52;;;;;;;;;;;20.40;36.00;;;;;;1542978;77;1927;-59
2023/03/23 10:14:14;;;;;;;;;;;20.40;36.00;;;;;;1526386;77;2146;-60
2023/03/23 10:16:20;;;;;;;;;;;20.40;36.00;;;;;;1546433;77;1991;-59
2023/03/23 10:18:26;;;;;;;;;;;20.40;36.00;;;;;;1534575;77;1901;-60
2023/03/23 10:20:33;;;;;;;;;;;20.40;35.90;;;;;;1486690;78;1599;-59
2023/03/23 10:22:37;;;;;;;;;;;20.40;36.00;;;;;;1530606;77;1162;-60
2023/03/23 10:24:41;;;;;;;;;;;20.40;35.90;;;;;;1545046;77;1017;-60
2023/03/23 10:26:44;;;;;;;;;;;20.40;35.90;;;;;;1542242;77;2094;-60
2023/03/23 10:28:48;;;;;;;;;;;20.40;36.00;;;;;;1537762;77;666;-60
2023/03/23 10:30:52;;;;;;;;;;;20.40;35.90;;;;;;1544689;77;1920;-60
2023/03/23 10:33:08;;;;;;;;;;;20.40;35.90;;;;;;1542925;77;1474;-61
2023/03/23 10:35:14;;;;;;;;;;;20.40;36.00;;;;;;1526451;77;1952;-61
2023/03/23 10:37:18;;;;;;;;;;;20.40;35.90;;;;;;1538910;77;1841;-59
2023/03/23 10:39:24;;;;;;;;;;;20.40;35.90;;;;;;1536234;77;710;-61
2023/03/23 10:41:25;;;;;;;;;;;20.40;35.90;;;;;;1524201;77;693;-60
2023/03/23 10:43:27;;;;;;;;;;;20.40;35.90;;;;;;1545587;77;1115;-60
2023/03/23 10:45:32;;;;;;;;;;;20.40;35.90;;;;;;1530671;77;628;-60
2023/03/23 10:47:33;;;;;;;;;;;20.40;35.90;;;;;;1529772;77;1685;-60
2023/03/23 10:49:38;;;;;;;;;;;20.50;36.00;;;;;;1543802;77;824;-61
2023/03/23 10:51:41;;;;;;;;;;;20.50;35.90;;;;;;1545804;77;1933;-60
2023/03/23 10:53:44;;;;;;;;;;;20.40;35.90;;;;;;1548753;77;1167;-60
2023/03/23 10:55:46;;;;;;;;;;;20.40;35.80;;;;;;1547748;77;687;-60
2023/03/23 10:58:02;;;;;;;;;;;20.50;36.00;;;;;;1532184;77;787;-60
2023/03/23 11:00:08;;;;;;;;;;;20.50;35.90;;;;;;1544116;77;661;-59
2023/03/23 11:02:12;;;;;;;;;;;20.50;35.90;;;;;;1537208;77;1350;-60
2023/03/23 11:04:14;;;;;;;;;;;20.40;35.90;;;;;;1535608;77;1924;-59
2023/03/23 11:06:20;;;;;;;;;;;20.50;36.00;;;;;;1542606;77;739;-59
2023/03/23 11:08:23;;;;;;;;;;;20.50;35.90;;;;;;1533937;77;832;-59
2023/03/23 11:10:26;;;;;;;;;;;20.50;35.90;;;;;;1539271;77;784;-60
2023/03/23 11:12:28;;;;;;;;;;;20.50;35.90;;;;;;1538487;77;1939;-59
2023/03/23 11:14:32;;;;;;;;;;;20.50;35.90;;;;;;1520265;77;1242;-60
2023/03/23 11:16:35;;;;;;;;;;;20.50;35.90;;;;;;1536149;77;1554;-60
2023/03/23 11:18:42;;;;;;;;;;;20.60;35.90;;;;;;1531985;77;775;-60
2023/03/23 11:20:44;;;;;;;;;;;20.60;35.90;;;;;;1545354;77;662;-60
2023/03/23 11:22:46;;;;;;;;;;;20.50;35.80;;;;;;1543600;77;1138;-59
2023/03/23 11:24:48;;;;;;;;;;;20.60;35.80;;;;;;1526581;77;795;-62
2023/03/23 11:26:50;;;;;;;;;;;20.60;35.80;;;;;;1516067;77;1055;-60
2023/03/23 11:28:54;;;;;;;;;;;20.50;35.80;;;;;;1545675;77;1490;-63
2023/03/23 11:30:55;;;;;;;;;;;20.50;35.80;;;;;;1543640;77;1917;-62
2023/03/23 11:33:00;;;;;;;;;;;20.50;35.80;;;;;;1547799;77;1141;-60
2023/03/23 11:35:08;;;;;;;;;;;20.60;35.80;;;;;;1533815;77;871;-60
2023/03/23 11:37:08;;;;;;;;;;;20.50;35.80;;;;;;1534085;77;1458;-60
2023/03/23 11:39:21;;;;;;;;;;;20.50;35.70;;;;;;1531232;77;714;-59
2023/03/23 11:41:23;;;;;;;;;;;20.60;35.70;;;;;;1549032;77;620;-60
2023/03/23 11:43:26;;;;;;;;;;;20.60;35.70;;;;;;1546684;77;1471;-60
2023/03/23 11:45:36;;;;;;;;;;;20.50;35.70;;;;;;1537001;77;725;-59
2023/03/23 11:47:39;;;;;;;;;;;20.60;35.70;;;;;;1536702;77;787;-60
2023/03/23 11:49:43;;;;;;;;;;;20.60;35.70;;;;;;1548033;77;683;-60
2023/03/23 11:51:50;;;;;;;;;;;20.60;35.70;;;;;;1545127;77;1942;-61
2023/03/23 11:54:02;;;;;;;;;;;20.60;35.70;;;;;;1547654;77;1173;-59
2023/03/23 11:56:12;;;;;;;;;;;20.60;35.70;;;;;;1534283;77;933;-60
2023/03/23 11:58:15;;;;;;;;;;;20.60;35.60;;;;;;1533092;77;1366;-60
2023/03/23 12:00:18;;;;;;;;;;;20.60;35.60;;;;;;1547801;77;616;-61
2023/03/23 12:02:28;;;;;;;;;;;20.60;35.60;;;;;;1542787;77;1095;-60
2023/03/23 12:04:33;;;;;;;;;;;20.60;35.50;;;;;;1536303;77;1918;-59
2023/03/23 12:06:36;;;;;;;;;;;20.60;35.50;;;;;;1533293;77;877;-60
2023/03/23 12:08:40;;;;;;;;;;;20.60;35.50;;;;;;1548195;77;796;-61
2023/03/23 12:11:00;;;;;;;;;;;20.60;35.50;;;;;;1538518;77;1993;-62
2023/03/23 12:13:15;;;;;;;;;;;20.60;35.50;;;;;;1542015;77;1963;-60
2023/03/23 12:15:25;;;;;;;;;;;20.60;35.50;;;;;;1532635;77;1777;-60